TAF Text Data
IDs:
Format:
Raw Decoded Include METAR

Data at: 1423 UTC 27 Nov 2021

KORH 271123Z 2712/2812 28015G28KT P6SM SCT120
  FM272100 28015G24KT P6SM SKC
  FM280500 28010KT P6SM FEW250
  FM281000 26008KT P6SM SCT150